Terminal Aerodrome Forecast
Issued by NWS

Home | Current Version | Previous Version | Text Only | Print | Product List | Glossary On
Versions: 1 2 3 4 5 6 7 8 9 10 11 12 13
273
FTUS42 KTBW 260022 AAA
TAFLAL
TAF AMD
KLAL 260022Z 2600/2624 16006KT P6SM VCTS SCT045CB BKN100
      TEMPO 2600/2602 VRB15G25KT 2SM TSRA BKN025CB
     FM260300 VRB03KT P6SM SCT050 BKN100 BKN250
     FM260500 00000KT P6SM FEW040 SCT100 SCT250
     FM261500 15006KT P6SM SCT030 SCT250
     FM261800 18007KT P6SM VCTS SCT040CB SCT250=

USA.gov is the U.S. government's official web portal to all federal, state and local government web resources and services.